sensor_id;sensor_type;location;lat;lon;timestamp;pressure;altitude;pressure_sealevel;temperature;humidity
75553;BME280;64136;53.118;17.996;2023-06-22T00:00:58;101148.92;;;21.23;68.30
75553;BME280;64136;53.118;17.996;2023-06-22T00:03:25;101153.48;;;21.19;68.44
75553;BME280;64136;53.118;17.996;2023-06-22T00:05:52;101162.39;;;21.17;68.84
75553;BME280;64136;53.118;17.996;2023-06-22T00:08:19;101161.30;;;21.15;68.84
75553;BME280;64136;53.118;17.996;2023-06-22T00:10:46;101172.22;;;21.12;68.81
75553;BME280;64136;53.118;17.996;2023-06-22T00:13:15;101170.31;;;21.15;68.88
75553;BME280;64136;53.118;17.996;2023-06-22T00:15:41;101169.95;;;21.15;68.97
75553;BME280;64136;53.118;17.996;2023-06-22T00:18:09;101170.45;;;21.15;69.04
75553;BME280;64136;53.118;17.996;2023-06-22T00:20:36;101171.42;;;21.15;69.27
75553;BME280;64136;53.118;17.996;2023-06-22T00:23:04;101175.82;;;21.10;69.35
75553;BME280;64136;53.118;17.996;2023-06-22T00:25:38;101174.54;;;21.07;69.84
75553;BME280;64136;53.118;17.996;2023-06-22T00:28:06;101169.72;;;21.08;69.58
75553;BME280;64136;53.118;17.996;2023-06-22T00:30:34;101174.71;;;21.07;69.46
75553;BME280;64136;53.118;17.996;2023-06-22T00:33:01;101182.39;;;21.08;69.56
75553;BME280;64136;53.118;17.996;2023-06-22T00:35:27;101180.05;;;21.08;69.48
75553;BME280;64136;53.118;17.996;2023-06-22T00:37:56;101184.65;;;21.05;69.83
75553;BME280;64136;53.118;17.996;2023-06-22T00:40:28;101186.37;;;21.06;69.80
75553;BME280;64136;53.118;17.996;2023-06-22T00:42:54;101181.80;;;21.03;70.04
75553;BME280;64136;53.118;17.996;2023-06-22T00:45:23;101188.10;;;21.01;69.69
75553;BME280;64136;53.118;17.996;2023-06-22T00:50:22;101186.09;;;20.99;69.83
75553;BME280;64136;53.118;17.996;2023-06-22T00:52:52;101188.13;;;21.04;69.56
75553;BME280;64136;53.118;17.996;2023-06-22T00:55:20;101186.02;;;21.00;69.78
75553;BME280;64136;53.118;17.996;2023-06-22T00:58:14;101186.90;;;21.02;69.58
75553;BME280;64136;53.118;17.996;2023-06-22T01:00:41;101189.97;;;20.97;70.02
75553;BME280;64136;53.118;17.996;2023-06-22T01:05:37;101188.14;;;20.83;70.37
75553;BME280;64136;53.118;17.996;2023-06-22T01:08:19;101186.61;;;20.74;70.84
75553;BME280;64136;53.118;17.996;2023-06-22T01:10:55;101186.77;;;20.71;70.95
75553;BME280;64136;53.118;17.996;2023-06-22T01:13:39;101192.23;;;20.61;71.04
75553;BME280;64136;53.118;17.996;2023-06-22T01:16:20;101195.33;;;20.59;70.91
75553;BME280;64136;53.118;17.996;2023-06-22T01:18:51;101195.64;;;20.54;70.93
75553;BME280;64136;53.118;17.996;2023-06-22T01:21:20;101189.75;;;20.50;70.59
75553;BME280;64136;53.118;17.996;2023-06-22T01:23:54;101192.05;;;20.46;70.51
75553;BME280;64136;53.118;17.996;2023-06-22T01:29:16;101194.17;;;20.37;70.41
75553;BME280;64136;53.118;17.996;2023-06-22T01:31:44;101190.88;;;20.31;70.29
75553;BME280;64136;53.118;17.996;2023-06-22T01:34:12;101190.95;;;20.26;70.20
75553;BME280;64136;53.118;17.996;2023-06-22T01:36:39;101189.73;;;20.24;70.12
75553;BME280;64136;53.118;17.996;2023-06-22T01:39:07;101192.18;;;20.24;69.79
75553;BME280;64136;53.118;17.996;2023-06-22T01:41:36;101189.30;;;20.21;69.75
75553;BME280;64136;53.118;17.996;2023-06-22T01:44:05;101190.92;;;20.13;69.52
75553;BME280;64136;53.118;17.996;2023-06-22T01:46:34;101192.79;;;20.08;69.50
75553;BME280;64136;53.118;17.996;2023-06-22T01:49:02;101191.81;;;20.04;69.79
75553;BME280;64136;53.118;17.996;2023-06-22T01:56:26;101194.92;;;20.02;69.61
75553;BME280;64136;53.118;17.996;2023-06-22T02:01:29;101189.85;;;19.88;69.96
75553;BME280;64136;53.118;17.996;2023-06-22T02:04:04;101196.70;;;19.86;69.76
75553;BME280;64136;53.118;17.996;2023-06-22T02:06:37;101194.55;;;19.90;69.46
75553;BME280;64136;53.118;17.996;2023-06-22T02:09:13;101189.23;;;19.92;69.48
75553;BME280;64136;53.118;17.996;2023-06-22T02:11:42;101189.09;;;19.89;69.67
75553;BME280;64136;53.118;17.996;2023-06-22T02:14:11;101193.03;;;19.87;69.52
75553;BME280;64136;53.118;17.996;2023-06-22T02:16:39;101191.23;;;19.87;69.52
75553;BME280;64136;53.118;17.996;2023-06-22T02:21:33;101201.13;;;19.83;70.29
75553;BME280;64136;53.118;17.996;2023-06-22T02:24:00;101208.27;;;19.68;71.22
75553;BME280;64136;53.118;17.996;2023-06-22T02:26:26;101218.36;;;19.51;72.01
75553;BME280;64136;53.118;17.996;2023-06-22T02:28:53;101223.25;;;19.44;72.22
75553;BME280;64136;53.118;17.996;2023-06-22T02:31:19;101223.80;;;19.38;72.19
75553;BME280;64136;53.118;17.996;2023-06-22T02:33:46;101226.55;;;19.36;72.07
75553;BME280;64136;53.118;17.996;2023-06-22T02:36:14;101226.01;;;19.36;71.65
75553;BME280;64136;53.118;17.996;2023-06-22T02:38:41;101227.39;;;19.35;71.44
75553;BME280;64136;53.118;17.996;2023-06-22T02:41:14;101222.39;;;19.34;71.11
75553;BME280;64136;53.118;17.996;2023-06-22T02:43:45;101223.27;;;19.24;71.32
75553;BME280;64136;53.118;17.996;2023-06-22T02:46:12;101223.82;;;19.24;70.93
75553;BME280;64136;53.118;17.996;2023-06-22T02:48:40;101222.20;;;19.27;70.77
75553;BME280;64136;53.118;17.996;2023-06-22T02:51:07;101227.09;;;19.26;70.76
75553;BME280;64136;53.118;17.996;2023-06-22T02:53:34;101229.27;;;19.20;70.55
75553;BME280;64136;53.118;17.996;2023-06-22T02:56:02;101223.27;;;19.22;70.42
75553;BME280;64136;53.118;17.996;2023-06-22T03:01:06;101224.36;;;19.16;70.21
75553;BME280;64136;53.118;17.996;2023-06-22T03:03:33;101225.87;;;19.18;70.14
75553;BME280;64136;53.118;17.996;2023-06-22T03:05:59;101230.77;;;19.19;70.15
75553;BME280;64136;53.118;17.996;2023-06-22T03:08:27;101234.91;;;19.19;69.99
75553;BME280;64136;53.118;17.996;2023-06-22T03:10:54;101237.68;;;19.18;69.94
75553;BME280;64136;53.118;17.996;2023-06-22T03:13:20;101246.05;;;19.15;69.94
75553;BME280;64136;53.118;17.996;2023-06-22T03:15:47;101247.26;;;19.23;69.77
75553;BME280;64136;53.118;17.996;2023-06-22T03:18:13;101248.81;;;19.30;69.64
75553;BME280;64136;53.118;17.996;2023-06-22T03:20:39;101250.31;;;19.29;69.57
75553;BME280;64136;53.118;17.996;2023-06-22T03:23:05;101250.23;;;19.26;69.60
75553;BME280;64136;53.118;17.996;2023-06-22T03:25:32;101253.02;;;19.25;69.76
75553;BME280;64136;53.118;17.996;2023-06-22T03:28:00;101252.39;;;19.22;70.09
75553;BME280;64136;53.118;17.996;2023-06-22T03:30:29;101254.00;;;19.20;69.98
75553;BME280;64136;53.118;17.996;2023-06-22T03:32:56;101256.17;;;19.12;70.36
75553;BME280;64136;53.118;17.996;2023-06-22T03:35:22;101255.44;;;19.13;70.25
75553;BME280;64136;53.118;17.996;2023-06-22T03:37:48;101264.17;;;19.15;70.27
75553;BME280;64136;53.118;17.996;2023-06-22T03:40:15;101262.27;;;19.20;69.99
75553;BME280;64136;53.118;17.996;2023-06-22T03:42:41;101262.81;;;19.18;70.00
75553;BME280;64136;53.118;17.996;2023-06-22T03:45:09;101268.54;;;19.11;70.37
75553;BME280;64136;53.118;17.996;2023-06-22T03:47:35;101274.23;;;19.07;70.28
75553;BME280;64136;53.118;17.996;2023-06-22T03:50:02;101280.46;;;19.08;70.29
75553;BME280;64136;53.118;17.996;2023-06-22T03:52:29;101285.89;;;19.00;70.58
75553;BME280;64136;53.118;17.996;2023-06-22T03:54:56;101285.28;;;19.05;70.40
75553;BME280;64136;53.118;17.996;2023-06-22T03:57:22;101281.04;;;19.01;70.56
75553;BME280;64136;53.118;17.996;2023-06-22T03:59:48;101281.34;;;19.04;70.48
75553;BME280;64136;53.118;17.996;2023-06-22T04:02:14;101277.63;;;19.04;70.47
75553;BME280;64136;53.118;17.996;2023-06-22T04:04:40;101277.89;;;19.03;70.46
75553;BME280;64136;53.118;17.996;2023-06-22T04:07:06;101278.59;;;19.05;70.44
75553;BME280;64136;53.118;17.996;2023-06-22T04:09:33;101282.29;;;19.00;70.95
75553;BME280;64136;53.118;17.996;2023-06-22T04:12:01;101286.73;;;18.98;71.13
75553;BME280;64136;53.118;17.996;2023-06-22T04:14:27;101287.20;;;18.99;70.93
75553;BME280;64136;53.118;17.996;2023-06-22T04:16:54;101288.70;;;19.04;70.84
75553;BME280;64136;53.118;17.996;2023-06-22T04:19:20;101285.16;;;19.13;70.42
75553;BME280;64136;53.118;17.996;2023-06-22T04:21:46;101287.08;;;19.14;70.35
75553;BME280;64136;53.118;17.996;2023-06-22T04:24:14;101289.71;;;19.07;70.56
75553;BME280;64136;53.118;17.996;2023-06-22T04:26:40;101287.67;;;19.12;70.47
75553;BME280;64136;53.118;17.996;2023-06-22T04:29:11;101287.05;;;19.16;70.22
75553;BME280;64136;53.118;17.996;2023-06-22T04:31:37;101285.19;;;19.21;69.96
75553;BME280;64136;53.118;17.996;2023-06-22T04:34:05;101279.89;;;19.28;69.82
75553;BME280;64136;53.118;17.996;2023-06-22T04:36:38;101277.46;;;19.39;69.67
75553;BME280;64136;53.118;17.996;2023-06-22T04:39:06;101279.84;;;19.49;69.26
75553;BME280;64136;53.118;17.996;2023-06-22T04:41:33;101275.54;;;19.56;69.09
75553;BME280;64136;53.118;17.996;2023-06-22T04:44:09;101275.38;;;19.54;69.00
75553;BME280;64136;53.118;17.996;2023-06-22T04:46:36;101283.11;;;19.60;68.82
75553;BME280;64136;53.118;17.996;2023-06-22T04:49:05;101289.30;;;19.59;68.81
75553;BME280;64136;53.118;17.996;2023-06-22T04:51:39;101292.72;;;19.57;68.76
75553;BME280;64136;53.118;17.996;2023-06-22T04:54:05;101292.26;;;19.46;69.20
75553;BME280;64136;53.118;17.996;2023-06-22T04:56:32;101288.92;;;19.51;68.92
75553;BME280;64136;53.118;17.996;2023-06-22T04:58:59;101295.77;;;19.61;68.76
75553;BME280;64136;53.118;17.996;2023-06-22T05:06:22;101299.94;;;19.61;68.75
75553;BME280;64136;53.118;17.996;2023-06-22T05:08:54;101299.90;;;19.61;68.78
75553;BME280;64136;53.118;17.996;2023-06-22T05:11:25;101302.66;;;19.64;68.89
75553;BME280;64136;53.118;17.996;2023-06-22T05:13:51;101312.95;;;19.70;68.82
75553;BME280;64136;53.118;17.996;2023-06-22T05:16:18;101315.30;;;19.70;68.62
75553;BME280;64136;53.118;17.996;2023-06-22T05:18:51;101311.52;;;19.72;68.64
75553;BME280;64136;53.118;17.996;2023-06-22T05:21:25;101307.05;;;19.79;68.30
75553;BME280;64136;53.118;17.996;2023-06-22T05:23:52;101309.80;;;19.78;67.99
75553;BME280;64136;53.118;17.996;2023-06-22T05:28:46;101318.30;;;19.78;67.76
75553;BME280;64136;53.118;17.996;2023-06-22T05:31:14;101321.09;;;19.77;67.86
75553;BME280;64136;53.118;17.996;2023-06-22T05:33:41;101327.69;;;19.79;67.80
75553;BME280;64136;53.118;17.996;2023-06-22T05:36:08;101328.16;;;19.82;67.76
75553;BME280;64136;53.118;17.996;2023-06-22T05:38:34;101324.79;;;19.89;67.38
75553;BME280;64136;53.118;17.996;2023-06-22T05:41:01;101325.68;;;19.98;67.27
75553;BME280;64136;53.118;17.996;2023-06-22T05:43:27;101325.44;;;20.07;67.13
75553;BME280;64136;53.118;17.996;2023-06-22T05:45:53;101324.85;;;20.19;67.22
75553;BME280;64136;53.118;17.996;2023-06-22T05:48:19;101320.30;;;20.28;67.10
75553;BME280;64136;53.118;17.996;2023-06-22T05:50:45;101315.69;;;20.42;66.20
75553;BME280;64136;53.118;17.996;2023-06-22T05:53:11;101314.39;;;20.48;65.44
75553;BME280;64136;53.118;17.996;2023-06-22T05:55:38;101321.11;;;20.54;65.02
75553;BME280;64136;53.118;17.996;2023-06-22T05:58:04;101314.50;;;20.47;64.91
75553;BME280;64136;53.118;17.996;2023-06-22T06:00:30;101313.84;;;20.43;64.84
75553;BME280;64136;53.118;17.996;2023-06-22T06:02:56;101313.73;;;20.40;65.00
75553;BME280;64136;53.118;17.996;2023-06-22T06:05:22;101312.89;;;20.43;65.19
75553;BME280;64136;53.118;17.996;2023-06-22T06:07:51;101316.24;;;20.46;64.73
75553;BME280;64136;53.118;17.996;2023-06-22T06:10:20;101313.14;;;20.60;64.84
75553;BME280;64136;53.118;17.996;2023-06-22T06:12:47;101312.50;;;20.72;64.42
75553;BME280;64136;53.118;17.996;2023-06-22T06:15:13;101310.65;;;20.82;64.15
75553;BME280;64136;53.118;17.996;2023-06-22T06:17:45;101301.41;;;20.84;63.74
75553;BME280;64136;53.118;17.996;2023-06-22T06:20:11;101302.06;;;20.89;63.67
75553;BME280;64136;53.118;17.996;2023-06-22T06:22:38;101304.85;;;20.95;62.93
75553;BME280;64136;53.118;17.996;2023-06-22T06:25:04;101312.95;;;21.00;63.20
75553;BME280;64136;53.118;17.996;2023-06-22T06:27:30;101320.51;;;20.92;61.35
75553;BME280;64136;53.118;17.996;2023-06-22T06:30:00;101325.02;;;20.95;61.03
75553;BME280;64136;53.118;17.996;2023-06-22T06:32:26;101324.79;;;21.01;60.56
75553;BME280;64136;53.118;17.996;2023-06-22T06:34:52;101328.70;;;21.03;59.48
75553;BME280;64136;53.118;17.996;2023-06-22T06:37:18;101322.33;;;21.02;58.92
75553;BME280;64136;53.118;17.996;2023-06-22T06:39:44;101318.54;;;21.12;58.91
75553;BME280;64136;53.118;17.996;2023-06-22T06:42:10;101319.10;;;21.17;59.09
75553;BME280;64136;53.118;17.996;2023-06-22T06:44:37;101319.90;;;21.25;58.65
75553;BME280;64136;53.118;17.996;2023-06-22T06:47:04;101317.04;;;21.40;58.89
75553;BME280;64136;53.118;17.996;2023-06-22T06:49:30;101317.27;;;21.43;57.94
75553;BME280;64136;53.118;17.996;2023-06-22T06:51:56;101317.20;;;21.57;58.10
75553;BME280;64136;53.118;17.996;2023-06-22T06:54:22;101314.79;;;21.55;57.42
75553;BME280;64136;53.118;17.996;2023-06-22T06:56:49;101311.90;;;21.52;57.20
75553;BME280;64136;53.118;17.996;2023-06-22T06:59:16;101311.61;;;21.58;57.26
75553;BME280;64136;53.118;17.996;2023-06-22T07:01:42;101315.56;;;21.67;57.23
75553;BME280;64136;53.118;17.996;2023-06-22T07:04:14;101326.27;;;21.81;56.97
75553;BME280;64136;53.118;17.996;2023-06-22T07:06:40;101324.13;;;21.84;56.52
75553;BME280;64136;53.118;17.996;2023-06-22T07:09:11;101318.94;;;21.71;56.29
75553;BME280;64136;53.118;17.996;2023-06-22T07:11:41;101321.77;;;21.78;56.51
75553;BME280;64136;53.118;17.996;2023-06-22T07:14:10;101318.16;;;21.83;55.68
75553;BME280;64136;53.118;17.996;2023-06-22T07:16:36;101317.04;;;21.81;55.85
75553;BME280;64136;53.118;17.996;2023-06-22T07:21:28;101321.61;;;21.86;56.03
75553;BME280;64136;53.118;17.996;2023-06-22T07:23:54;101327.24;;;21.89;55.47
75553;BME280;64136;53.118;17.996;2023-06-22T07:26:21;101326.04;;;21.95;54.60
75553;BME280;64136;53.118;17.996;2023-06-22T07:28:50;101329.48;;;22.03;55.26
75553;BME280;64136;53.118;17.996;2023-06-22T07:33:42;101334.30;;;21.98;56.04
75553;BME280;64136;53.118;17.996;2023-06-22T07:36:11;101335.73;;;22.07;55.76
75553;BME280;64136;53.118;17.996;2023-06-22T07:38:38;101335.27;;;22.12;55.48
75553;BME280;64136;53.118;17.996;2023-06-22T07:41:04;101342.35;;;22.20;54.72
75553;BME280;64136;53.118;17.996;2023-06-22T07:43:31;101344.71;;;22.34;54.44
75553;BME280;64136;53.118;17.996;2023-06-22T07:45:59;101344.61;;;22.38;54.07
75553;BME280;64136;53.118;17.996;2023-06-22T07:48:25;101343.02;;;22.49;54.08
75553;BME280;64136;53.118;17.996;2023-06-22T07:50:52;101337.95;;;22.57;53.83
75553;BME280;64136;53.118;17.996;2023-06-22T07:53:20;101336.10;;;22.59;54.03
75553;BME280;64136;53.118;17.996;2023-06-22T07:55:47;101337.28;;;22.62;54.05
75553;BME280;64136;53.118;17.996;2023-06-22T07:58:13;101335.76;;;22.66;53.26
75553;BME280;64136;53.118;17.996;2023-06-22T08:00:40;101334.38;;;22.64;52.69
75553;BME280;64136;53.118;17.996;2023-06-22T08:05:34;101340.69;;;22.71;51.73
75553;BME280;64136;53.118;17.996;2023-06-22T08:08:00;101341.90;;;22.75;51.61
75553;BME280;64136;53.118;17.996;2023-06-22T08:10:26;101344.30;;;22.81;50.76
75553;BME280;64136;53.118;17.996;2023-06-22T08:12:52;101345.75;;;22.79;50.49
75553;BME280;64136;53.118;17.996;2023-06-22T08:17:45;101348.88;;;22.84;51.46
75553;BME280;64136;53.118;17.996;2023-06-22T08:20:12;101356.63;;;22.86;51.57
75553;BME280;64136;53.118;17.996;2023-06-22T08:22:42;101358.90;;;22.87;51.52
75553;BME280;64136;53.118;17.996;2023-06-22T08:25:10;101359.60;;;23.04;51.13
75553;BME280;64136;53.118;17.996;2023-06-22T08:27:36;101351.03;;;23.10;50.13
75553;BME280;64136;53.118;17.996;2023-06-22T08:30:03;101348.91;;;23.16;49.95
75553;BME280;64136;53.118;17.996;2023-06-22T08:34:56;101342.11;;;23.16;50.18
75553;BME280;64136;53.118;17.996;2023-06-22T08:37:23;101341.65;;;23.20;50.97
75553;BME280;64136;53.118;17.996;2023-06-22T08:40:00;101348.73;;;23.11;51.18
75553;BME280;64136;53.118;17.996;2023-06-22T08:42:27;101349.66;;;23.25;50.89
75553;BME280;64136;53.118;17.996;2023-06-22T08:44:53;101343.69;;;23.36;50.03
75553;BME280;64136;53.118;17.996;2023-06-22T08:47:19;101342.89;;;23.48;49.83
75553;BME280;64136;53.118;17.996;2023-06-22T08:49:47;101340.43;;;23.59;49.62
75553;BME280;64136;53.118;17.996;2023-06-22T08:52:13;101343.10;;;23.48;49.87
75553;BME280;64136;53.118;17.996;2023-06-22T08:54:39;101344.85;;;23.56;49.56
75553;BME280;64136;53.118;17.996;2023-06-22T08:57:10;101341.58;;;23.65;49.09
75553;BME280;64136;53.118;17.996;2023-06-22T08:59:46;101336.08;;;23.75;49.22
75553;BME280;64136;53.118;17.996;2023-06-22T09:02:13;101338.12;;;23.75;49.08
75553;BME280;64136;53.118;17.996;2023-06-22T09:04:42;101339.16;;;23.88;49.09
75553;BME280;64136;53.118;17.996;2023-06-22T09:07:09;101339.78;;;24.01;48.80
75553;BME280;64136;53.118;17.996;2023-06-22T09:09:35;101340.13;;;24.17;48.01
75553;BME280;64136;53.118;17.996;2023-06-22T09:12:01;101333.91;;;24.28;45.29
75553;BME280;64136;53.118;17.996;2023-06-22T09:14:27;101330.38;;;24.34;44.15
75553;BME280;64136;53.118;17.996;2023-06-22T09:19:19;101328.56;;;24.51;43.73
75553;BME280;64136;53.118;17.996;2023-06-22T09:21:46;101318.05;;;24.54;44.48
75553;BME280;64136;53.118;17.996;2023-06-22T09:24:12;101321.54;;;24.44;44.38
75553;BME280;64136;53.118;17.996;2023-06-22T09:26:39;101308.23;;;24.49;43.93
75553;BME280;64136;53.118;17.996;2023-06-22T09:29:05;101316.38;;;24.50;43.70
75553;BME280;64136;53.118;17.996;2023-06-22T09:33:58;101306.44;;;24.56;41.81
75553;BME280;64136;53.118;17.996;2023-06-22T09:36:24;101310.39;;;24.66;41.31
75553;BME280;64136;53.118;17.996;2023-06-22T09:38:50;101308.92;;;24.81;41.63
75553;BME280;64136;53.118;17.996;2023-06-22T09:41:22;101312.63;;;24.80;40.81
75553;BME280;64136;53.118;17.996;2023-06-22T09:43:52;101313.33;;;24.96;41.87
75553;BME280;64136;53.118;17.996;2023-06-22T09:48:44;101306.39;;;25.20;41.97
75553;BME280;64136;53.118;17.996;2023-06-22T09:51:11;101306.41;;;25.17;41.73
75553;BME280;64136;53.118;17.996;2023-06-22T09:53:37;101307.53;;;25.23;41.42
75553;BME280;64136;53.118;17.996;2023-06-22T09:56:04;101312.19;;;25.29;41.14
75553;BME280;64136;53.118;17.996;2023-06-22T09:58:32;101307.48;;;25.42;40.82
75553;BME280;64136;53.118;17.996;2023-06-22T10:00:58;101307.77;;;25.28;40.14
75553;BME280;64136;53.118;17.996;2023-06-22T10:03:25;101308.52;;;25.36;40.26
75553;BME280;64136;53.118;17.996;2023-06-22T10:05:52;101308.29;;;25.21;39.19
75553;BME280;64136;53.118;17.996;2023-06-22T10:08:18;101305.92;;;25.28;39.70
75553;BME280;64136;53.118;17.996;2023-06-22T10:10:44;101308.52;;;25.47;40.12
75553;BME280;64136;53.118;17.996;2023-06-22T10:13:10;101305.31;;;25.54;39.47
75553;BME280;64136;53.118;17.996;2023-06-22T10:15:37;101300.45;;;25.60;39.75
75553;BME280;64136;53.118;17.996;2023-06-22T10:18:04;101299.92;;;25.65;40.00
75553;BME280;64136;53.118;17.996;2023-06-22T10:20:31;101303.99;;;25.67;40.17
75553;BME280;64136;53.118;17.996;2023-06-22T10:25:24;101292.10;;;25.69;40.09
75553;BME280;64136;53.118;17.996;2023-06-22T10:27:50;101292.64;;;25.65;39.67
75553;BME280;64136;53.118;17.996;2023-06-22T10:30:17;101299.93;;;25.69;39.59
75553;BME280;64136;53.118;17.996;2023-06-22T10:32:43;101298.73;;;25.70;39.84
75553;BME280;64136;53.118;17.996;2023-06-22T10:35:09;101296.90;;;25.77;40.22
75553;BME280;64136;53.118;17.996;2023-06-22T10:37:39;101297.94;;;25.78;40.05
75553;BME280;64136;53.118;17.996;2023-06-22T10:40:06;101300.80;;;25.94;40.39
75553;BME280;64136;53.118;17.996;2023-06-22T10:42:33;101294.56;;;26.16;40.55
75553;BME280;64136;53.118;17.996;2023-06-22T10:45:00;101294.04;;;26.35;40.36
75553;BME280;64136;53.118;17.996;2023-06-22T10:47:29;101294.71;;;26.46;40.15
75553;BME280;64136;53.118;17.996;2023-06-22T10:52:21;101285.24;;;26.42;38.71
75553;BME280;64136;53.118;17.996;2023-06-22T10:54:52;101281.75;;;26.45;38.20
75553;BME280;64136;53.118;17.996;2023-06-22T10:57:19;101275.06;;;26.67;38.55
75553;BME280;64136;53.118;17.996;2023-06-22T10:59:48;101278.00;;;26.73;38.63
75553;BME280;64136;53.118;17.996;2023-06-22T11:02:17;101279.11;;;26.68;37.84
75553;BME280;64136;53.118;17.996;2023-06-22T11:04:43;101275.02;;;26.72;37.62
75553;BME280;64136;53.118;17.996;2023-06-22T11:07:09;101274.75;;;26.74;37.54
75553;BME280;64136;53.118;17.996;2023-06-22T11:09:35;101273.50;;;26.93;37.48
75553;BME280;64136;53.118;17.996;2023-06-22T11:12:02;101276.89;;;26.98;37.93
75553;BME280;64136;53.118;17.996;2023-06-22T11:17:31;101280.05;;;27.08;37.24
75553;BME280;64136;53.118;17.996;2023-06-22T11:19:57;101279.95;;;27.23;36.49
75553;BME280;64136;53.118;17.996;2023-06-22T11:22:23;101277.54;;;27.21;35.07
75553;BME280;64136;53.118;17.996;2023-06-22T11:24:49;101274.55;;;27.38;35.26
75553;BME280;64136;53.118;17.996;2023-06-22T11:27:15;101279.63;;;27.39;35.80
75553;BME280;64136;53.118;17.996;2023-06-22T11:29:41;101278.88;;;27.50;36.38
75553;BME280;64136;53.118;17.996;2023-06-22T11:32:08;101274.54;;;27.44;36.03
75553;BME280;64136;53.118;17.996;2023-06-22T11:34:34;101272.73;;;27.44;36.49
75553;BME280;64136;53.118;17.996;2023-06-22T11:37:01;101274.42;;;27.54;36.65
75553;BME280;64136;53.118;17.996;2023-06-22T11:39:27;101273.72;;;28.14;35.62
75553;BME280;64136;53.118;17.996;2023-06-22T11:44:19;101270.34;;;29.05;33.22
75553;BME280;64136;53.118;17.996;2023-06-22T11:46:45;101270.10;;;29.19;32.31
75553;BME280;64136;53.118;17.996;2023-06-22T11:49:11;101273.26;;;29.58;30.99
75553;BME280;64136;53.118;17.996;2023-06-22T11:51:37;101272.22;;;29.85;30.59
75553;BME280;64136;53.118;17.996;2023-06-22T11:54:03;101270.44;;;30.18;31.02
75553;BME280;64136;53.118;17.996;2023-06-22T11:56:30;101260.59;;;30.98;30.29
75553;BME280;64136;53.118;17.996;2023-06-22T11:58:56;101257.05;;;31.58;30.25
75553;BME280;64136;53.118;17.996;2023-06-22T12:01:22;101255.23;;;31.78;29.46
75553;BME280;64136;53.118;17.996;2023-06-22T12:06:14;101254.89;;;31.40;28.66
75553;BME280;64136;53.118;17.996;2023-06-22T12:08:40;101246.14;;;31.68;28.70
75553;BME280;64136;53.118;17.996;2023-06-22T12:11:06;101241.17;;;31.58;28.69
75553;BME280;64136;53.118;17.996;2023-06-22T12:13:32;101239.38;;;32.27;28.20
75553;BME280;64136;53.118;17.996;2023-06-22T12:15:59;101236.48;;;32.23;27.07
75553;BME280;64136;53.118;17.996;2023-06-22T12:18:25;101232.63;;;32.64;26.87
75553;BME280;64136;53.118;17.996;2023-06-22T12:20:51;101228.95;;;33.05;26.73
75553;BME280;64136;53.118;17.996;2023-06-22T12:23:17;101230.58;;;33.11;25.88
75553;BME280;64136;53.118;17.996;2023-06-22T12:25:44;101229.88;;;33.23;25.71
75553;BME280;64136;53.118;17.996;2023-06-22T12:28:11;101228.35;;;33.51;26.04
75553;BME280;64136;53.118;17.996;2023-06-22T12:30:37;101226.04;;;33.86;24.98
75553;BME280;64136;53.118;17.996;2023-06-22T12:33:03;101222.82;;;33.71;24.91
75553;BME280;64136;53.118;17.996;2023-06-22T12:35:29;101225.48;;;33.69;25.09
75553;BME280;64136;53.118;17.996;2023-06-22T12:37:55;101225.81;;;33.93;25.04
75553;BME280;64136;53.118;17.996;2023-06-22T12:40:21;101230.38;;;34.06;25.24
75553;BME280;64136;53.118;17.996;2023-06-22T12:42:47;101223.87;;;34.06;24.52
75553;BME280;64136;53.118;17.996;2023-06-22T12:45:13;101216.64;;;34.17;24.61
75553;BME280;64136;53.118;17.996;2023-06-22T12:47:40;101203.84;;;34.79;24.99
75553;BME280;64136;53.118;17.996;2023-06-22T12:50:07;101202.39;;;35.21;23.63
75553;BME280;64136;53.118;17.996;2023-06-22T12:52:33;101203.70;;;35.52;23.09
75553;BME280;64136;53.118;17.996;2023-06-22T12:54:59;101207.39;;;35.73;22.23
75553;BME280;64136;53.118;17.996;2023-06-22T12:57:25;101199.69;;;36.16;21.37
75553;BME280;64136;53.118;17.996;2023-06-22T12:59:51;101196.38;;;36.67;20.86
75553;BME280;64136;53.118;17.996;2023-06-22T13:02:17;101190.83;;;37.33;20.50
75553;BME280;64136;53.118;17.996;2023-06-22T13:04:43;101189.04;;;37.86;19.86
75553;BME280;64136;53.118;17.996;2023-06-22T13:07:10;101181.52;;;37.95;19.71
75553;BME280;64136;53.118;17.996;2023-06-22T13:09:36;101181.31;;;38.08;20.30
75553;BME280;64136;53.118;17.996;2023-06-22T13:12:03;101182.73;;;38.05;20.36
75553;BME280;64136;53.118;17.996;2023-06-22T13:14:29;101182.27;;;37.51;20.30
75553;BME280;64136;53.118;17.996;2023-06-22T13:16:55;101181.54;;;36.82;20.88
75553;BME280;64136;53.118;17.996;2023-06-22T13:19:21;101186.19;;;37.02;20.83
75553;BME280;64136;53.118;17.996;2023-06-22T13:21:47;101183.04;;;37.92;20.12
75553;BME280;64136;53.118;17.996;2023-06-22T13:24:13;101169.58;;;38.63;19.29
75553;BME280;64136;53.118;17.996;2023-06-22T13:26:40;101166.35;;;39.13;19.04
75553;BME280;64136;53.118;17.996;2023-06-22T13:29:06;101167.36;;;38.71;18.35
75553;BME280;64136;53.118;17.996;2023-06-22T13:31:32;101173.88;;;38.44;18.43
75553;BME280;64136;53.118;17.996;2023-06-22T13:33:58;101171.91;;;38.76;18.36
75553;BME280;64136;53.118;17.996;2023-06-22T13:36:24;101166.23;;;38.88;18.49
75553;BME280;64136;53.118;17.996;2023-06-22T13:38:50;101159.58;;;39.55;18.25
75553;BME280;64136;53.118;17.996;2023-06-22T13:41:17;101153.95;;;39.89;17.91